sensor_id;sensor_type;location;lat;lon;timestamp;P1;durP1;ratioP1;P2;durP2;ratioP2
52614;SDS011;38508;53.158;6.614;2022-08-19T00:00:25;8.07;;;5.65;;
52614;SDS011;38508;53.158;6.614;2022-08-19T00:02:52;9.38;;;5.47;;
52614;SDS011;38508;53.158;6.614;2022-08-19T00:05:19;8.23;;;5.22;;
52614;SDS011;38508;53.158;6.614;2022-08-19T00:07:47;7.22;;;5.55;;
52614;SDS011;38508;53.158;6.614;2022-08-19T00:10:14;7.32;;;5.50;;
52614;SDS011;38508;53.158;6.614;2022-08-19T00:12:41;7.45;;;5.00;;
52614;SDS011;38508;53.158;6.614;2022-08-19T00:15:07;6.78;;;5.43;;
52614;SDS011;38508;53.158;6.614;2022-08-19T00:17:37;6.95;;;5.15;;
52614;SDS011;38508;53.158;6.614;2022-08-19T00:20:04;10.98;;;7.13;;
52614;SDS011;38508;53.158;6.614;2022-08-19T00:22:30;8.00;;;6.03;;
52614;SDS011;38508;53.158;6.614;2022-08-19T00:24:56;8.45;;;5.53;;
52614;SDS011;38508;53.158;6.614;2022-08-19T00:27:22;6.78;;;5.10;;
52614;SDS011;38508;53.158;6.614;2022-08-19T00:29:47;7.63;;;5.63;;
52614;SDS011;38508;53.158;6.614;2022-08-19T00:32:13;7.72;;;5.53;;
52614;SDS011;38508;53.158;6.614;2022-08-19T00:34:39;9.80;;;6.38;;
52614;SDS011;38508;53.158;6.614;2022-08-19T00:37:04;6.57;;;5.50;;
52614;SDS011;38508;53.158;6.614;2022-08-19T00:39:30;8.90;;;5.93;;
52614;SDS011;38508;53.158;6.614;2022-08-19T00:41:56;6.03;;;5.18;;
52614;SDS011;38508;53.158;6.614;2022-08-19T00:44:26;9.00;;;5.85;;
52614;SDS011;38508;53.158;6.614;2022-08-19T00:46:54;8.02;;;5.68;;
52614;SDS011;38508;53.158;6.614;2022-08-19T00:49:37;9.35;;;5.80;;
52614;SDS011;38508;53.158;6.614;2022-08-19T00:52:07;11.27;;;6.03;;
52614;SDS011;38508;53.158;6.614;2022-08-19T00:54:37;11.02;;;6.53;;
52614;SDS011;38508;53.158;6.614;2022-08-19T00:57:06;9.05;;;5.93;;
52614;SDS011;38508;53.158;6.614;2022-08-19T00:59:36;10.00;;;6.13;;
52614;SDS011;38508;53.158;6.614;2022-08-19T01:02:04;8.13;;;5.93;;
52614;SDS011;38508;53.158;6.614;2022-08-19T01:04:30;9.95;;;6.28;;
52614;SDS011;38508;53.158;6.614;2022-08-19T01:06:56;8.15;;;7.25;;
52614;SDS011;38508;53.158;6.614;2022-08-19T01:09:22;9.48;;;6.53;;
52614;SDS011;38508;53.158;6.614;2022-08-19T01:11:48;8.27;;;6.10;;
52614;SDS011;38508;53.158;6.614;2022-08-19T01:14:14;12.48;;;6.93;;
52614;SDS011;38508;53.158;6.614;2022-08-19T01:16:42;8.85;;;6.50;;
52614;SDS011;38508;53.158;6.614;2022-08-19T01:19:12;9.35;;;6.30;;
52614;SDS011;38508;53.158;6.614;2022-08-19T01:22:01;8.43;;;6.60;;
52614;SDS011;38508;53.158;6.614;2022-08-19T01:24:30;7.28;;;6.13;;
52614;SDS011;38508;53.158;6.614;2022-08-19T01:26:56;9.60;;;6.75;;
52614;SDS011;38508;53.158;6.614;2022-08-19T01:29:22;8.50;;;6.85;;
52614;SDS011;38508;53.158;6.614;2022-08-19T01:31:48;8.85;;;6.00;;
52614;SDS011;38508;53.158;6.614;2022-08-19T01:34:17;7.45;;;5.65;;
52614;SDS011;38508;53.158;6.614;2022-08-19T01:36:44;8.23;;;6.53;;
52614;SDS011;38508;53.158;6.614;2022-08-19T01:39:13;8.30;;;5.97;;
52614;SDS011;38508;53.158;6.614;2022-08-19T01:41:41;9.02;;;6.43;;
52614;SDS011;38508;53.158;6.614;2022-08-19T01:44:08;11.57;;;6.30;;
52614;SDS011;38508;53.158;6.614;2022-08-19T01:46:35;7.15;;;5.65;;
52614;SDS011;38508;53.158;6.614;2022-08-19T01:49:01;6.57;;;5.88;;
52614;SDS011;38508;53.158;6.614;2022-08-19T01:51:28;9.90;;;6.55;;
52614;SDS011;38508;53.158;6.614;2022-08-19T01:53:55;8.90;;;6.63;;
52614;SDS011;38508;53.158;6.614;2022-08-19T01:56:22;8.93;;;6.97;;
52614;SDS011;38508;53.158;6.614;2022-08-19T01:58:58;9.93;;;6.80;;
52614;SDS011;38508;53.158;6.614;2022-08-19T02:01:30;11.35;;;7.13;;
52614;SDS011;38508;53.158;6.614;2022-08-19T02:03:59;10.13;;;6.88;;
52614;SDS011;38508;53.158;6.614;2022-08-19T02:06:28;8.20;;;7.03;;
52614;SDS011;38508;53.158;6.614;2022-08-19T02:08:54;11.32;;;7.50;;
52614;SDS011;38508;53.158;6.614;2022-08-19T02:11:21;8.65;;;6.60;;
52614;SDS011;38508;53.158;6.614;2022-08-19T02:13:51;8.43;;;6.43;;
52614;SDS011;38508;53.158;6.614;2022-08-19T02:16:18;8.95;;;6.68;;
52614;SDS011;38508;53.158;6.614;2022-08-19T02:18:44;11.18;;;7.30;;
52614;SDS011;38508;53.158;6.614;2022-08-19T02:21:12;9.65;;;7.10;;
52614;SDS011;38508;53.158;6.614;2022-08-19T02:23:38;9.27;;;7.03;;
52614;SDS011;38508;53.158;6.614;2022-08-19T02:26:03;9.65;;;6.63;;
52614;SDS011;38508;53.158;6.614;2022-08-19T02:28:29;9.15;;;6.63;;
52614;SDS011;38508;53.158;6.614;2022-08-19T02:30:55;11.07;;;6.65;;
52614;SDS011;38508;53.158;6.614;2022-08-19T02:33:20;10.05;;;7.28;;
52614;SDS011;38508;53.158;6.614;2022-08-19T02:35:46;8.57;;;6.45;;
52614;SDS011;38508;53.158;6.614;2022-08-19T02:38:12;7.82;;;6.18;;
52614;SDS011;38508;53.158;6.614;2022-08-19T02:40:57;10.98;;;7.28;;
52614;SDS011;38508;53.158;6.614;2022-08-19T02:43:28;8.90;;;6.72;;
52614;SDS011;38508;53.158;6.614;2022-08-19T02:45:55;10.90;;;7.15;;
52614;SDS011;38508;53.158;6.614;2022-08-19T02:48:21;9.35;;;7.57;;
52614;SDS011;38508;53.158;6.614;2022-08-19T02:50:49;9.70;;;6.93;;
52614;SDS011;38508;53.158;6.614;2022-08-19T02:53:20;10.45;;;7.03;;
52614;SDS011;38508;53.158;6.614;2022-08-19T02:55:48;7.55;;;6.28;;
52614;SDS011;38508;53.158;6.614;2022-08-19T02:58:14;9.25;;;6.43;;
52614;SDS011;38508;53.158;6.614;2022-08-19T03:00:46;8.85;;;6.68;;
52614;SDS011;38508;53.158;6.614;2022-08-19T03:03:14;8.60;;;6.47;;
52614;SDS011;38508;53.158;6.614;2022-08-19T03:05:40;10.45;;;6.20;;
52614;SDS011;38508;53.158;6.614;2022-08-19T03:08:06;7.45;;;6.13;;
52614;SDS011;38508;53.158;6.614;2022-08-19T03:10:33;9.65;;;5.95;;
52614;SDS011;38508;53.158;6.614;2022-08-19T03:13:07;11.10;;;6.75;;
52614;SDS011;38508;53.158;6.614;2022-08-19T03:15:33;8.75;;;5.85;;
52614;SDS011;38508;53.158;6.614;2022-08-19T03:17:59;9.23;;;6.07;;
52614;SDS011;38508;53.158;6.614;2022-08-19T03:20:25;8.60;;;5.95;;
52614;SDS011;38508;53.158;6.614;2022-08-19T03:22:51;9.48;;;6.93;;
52614;SDS011;38508;53.158;6.614;2022-08-19T03:25:17;8.75;;;6.68;;
52614;SDS011;38508;53.158;6.614;2022-08-19T03:27:42;11.32;;;6.57;;
52614;SDS011;38508;53.158;6.614;2022-08-19T03:30:09;8.77;;;6.85;;
52614;SDS011;38508;53.158;6.614;2022-08-19T03:32:35;8.48;;;6.85;;
52614;SDS011;38508;53.158;6.614;2022-08-19T03:35:01;10.73;;;6.93;;
52614;SDS011;38508;53.158;6.614;2022-08-19T03:37:27;10.35;;;7.38;;
52614;SDS011;38508;53.158;6.614;2022-08-19T03:39:53;9.32;;;6.72;;
52614;SDS011;38508;53.158;6.614;2022-08-19T03:42:19;10.50;;;6.97;;
52614;SDS011;38508;53.158;6.614;2022-08-19T03:44:44;8.77;;;7.60;;
52614;SDS011;38508;53.158;6.614;2022-08-19T03:47:10;9.20;;;6.95;;
52614;SDS011;38508;53.158;6.614;2022-08-19T03:49:40;9.88;;;7.25;;
52614;SDS011;38508;53.158;6.614;2022-08-19T03:52:06;10.15;;;7.22;;
52614;SDS011;38508;53.158;6.614;2022-08-19T03:54:33;9.50;;;7.00;;
52614;SDS011;38508;53.158;6.614;2022-08-19T03:56:59;10.27;;;6.93;;
52614;SDS011;38508;53.158;6.614;2022-08-19T03:59:26;10.85;;;6.95;;
52614;SDS011;38508;53.158;6.614;2022-08-19T04:01:54;8.75;;;6.90;;
52614;SDS011;38508;53.158;6.614;2022-08-19T04:04:22;9.90;;;7.00;;
52614;SDS011;38508;53.158;6.614;2022-08-19T04:06:48;10.65;;;7.63;;
52614;SDS011;38508;53.158;6.614;2022-08-19T04:09:14;13.07;;;7.72;;
52614;SDS011;38508;53.158;6.614;2022-08-19T04:11:42;10.75;;;8.05;;
52614;SDS011;38508;53.158;6.614;2022-08-19T04:14:15;12.95;;;8.38;;
52614;SDS011;38508;53.158;6.614;2022-08-19T04:16:44;11.70;;;8.48;;
52614;SDS011;38508;53.158;6.614;2022-08-19T04:19:11;11.88;;;8.38;;
52614;SDS011;38508;53.158;6.614;2022-08-19T04:21:38;12.85;;;8.93;;
52614;SDS011;38508;53.158;6.614;2022-08-19T04:24:04;12.32;;;8.93;;
52614;SDS011;38508;53.158;6.614;2022-08-19T04:26:32;11.93;;;9.00;;
52614;SDS011;38508;53.158;6.614;2022-08-19T04:28:59;15.20;;;9.40;;
52614;SDS011;38508;53.158;6.614;2022-08-19T04:31:29;11.98;;;8.85;;
52614;SDS011;38508;53.158;6.614;2022-08-19T04:33:56;15.63;;;9.70;;
52614;SDS011;38508;53.158;6.614;2022-08-19T04:36:25;10.85;;;8.52;;
52614;SDS011;38508;53.158;6.614;2022-08-19T04:38:53;13.45;;;9.13;;
52614;SDS011;38508;53.158;6.614;2022-08-19T04:41:20;13.45;;;9.60;;
52614;SDS011;38508;53.158;6.614;2022-08-19T04:44:05;14.18;;;9.55;;
52614;SDS011;38508;53.158;6.614;2022-08-19T04:46:30;16.83;;;10.73;;
52614;SDS011;38508;53.158;6.614;2022-08-19T04:48:57;14.70;;;10.20;;
52614;SDS011;38508;53.158;6.614;2022-08-19T04:51:23;15.75;;;10.90;;
52614;SDS011;38508;53.158;6.614;2022-08-19T04:53:49;12.68;;;9.02;;
52614;SDS011;38508;53.158;6.614;2022-08-19T04:56:16;19.35;;;10.85;;
52614;SDS011;38508;53.158;6.614;2022-08-19T04:58:44;14.05;;;10.10;;
52614;SDS011;38508;53.158;6.614;2022-08-19T05:01:13;13.20;;;9.88;;
52614;SDS011;38508;53.158;6.614;2022-08-19T05:03:42;15.00;;;9.40;;
52614;SDS011;38508;53.158;6.614;2022-08-19T05:06:09;14.25;;;8.98;;
52614;SDS011;38508;53.158;6.614;2022-08-19T05:08:39;12.57;;;9.27;;
52614;SDS011;38508;53.158;6.614;2022-08-19T05:11:12;13.68;;;9.15;;
52614;SDS011;38508;53.158;6.614;2022-08-19T05:13:43;12.77;;;9.18;;
52614;SDS011;38508;53.158;6.614;2022-08-19T05:16:10;11.93;;;8.30;;
52614;SDS011;38508;53.158;6.614;2022-08-19T05:18:37;14.60;;;8.38;;
52614;SDS011;38508;53.158;6.614;2022-08-19T05:21:22;15.52;;;9.15;;
52614;SDS011;38508;53.158;6.614;2022-08-19T05:24:07;13.68;;;9.88;;
52614;SDS011;38508;53.158;6.614;2022-08-19T05:26:41;14.60;;;9.65;;
52614;SDS011;38508;53.158;6.614;2022-08-19T05:29:11;13.77;;;9.68;;
52614;SDS011;38508;53.158;6.614;2022-08-19T05:31:39;13.30;;;8.85;;
52614;SDS011;38508;53.158;6.614;2022-08-19T05:34:05;13.32;;;10.10;;
52614;SDS011;38508;53.158;6.614;2022-08-19T05:36:41;17.35;;;9.70;;
52614;SDS011;38508;53.158;6.614;2022-08-19T05:39:11;11.85;;;7.97;;
52614;SDS011;38508;53.158;6.614;2022-08-19T05:41:42;11.10;;;8.63;;
52614;SDS011;38508;53.158;6.614;2022-08-19T05:44:13;19.88;;;11.48;;
52614;SDS011;38508;53.158;6.614;2022-08-19T05:46:40;15.90;;;10.82;;
52614;SDS011;38508;53.158;6.614;2022-08-19T05:49:12;16.83;;;9.80;;
52614;SDS011;38508;53.158;6.614;2022-08-19T05:51:40;16.02;;;10.13;;
52614;SDS011;38508;53.158;6.614;2022-08-19T05:54:06;14.02;;;9.70;;
52614;SDS011;38508;53.158;6.614;2022-08-19T05:56:33;14.50;;;10.45;;
52614;SDS011;38508;53.158;6.614;2022-08-19T05:59:03;12.90;;;9.27;;
52614;SDS011;38508;53.158;6.614;2022-08-19T06:01:33;13.90;;;10.27;;
52614;SDS011;38508;53.158;6.614;2022-08-19T06:03:59;17.08;;;11.02;;
52614;SDS011;38508;53.158;6.614;2022-08-19T06:06:25;17.25;;;11.45;;
52614;SDS011;38508;53.158;6.614;2022-08-19T06:08:51;18.05;;;11.50;;
52614;SDS011;38508;53.158;6.614;2022-08-19T06:13:49;21.83;;;12.25;;
52614;SDS011;38508;53.158;6.614;2022-08-19T06:16:21;16.42;;;10.50;;
52614;SDS011;38508;53.158;6.614;2022-08-19T06:18:50;14.82;;;10.45;;
52614;SDS011;38508;53.158;6.614;2022-08-19T06:21:27;17.42;;;12.48;;
52614;SDS011;38508;53.158;6.614;2022-08-19T06:23:54;13.88;;;10.63;;
52614;SDS011;38508;53.158;6.614;2022-08-19T06:26:21;16.23;;;11.20;;
52614;SDS011;38508;53.158;6.614;2022-08-19T06:28:48;17.27;;;11.02;;
52614;SDS011;38508;53.158;6.614;2022-08-19T06:31:18;14.48;;;10.55;;
52614;SDS011;38508;53.158;6.614;2022-08-19T06:33:46;13.77;;;9.20;;
52614;SDS011;38508;53.158;6.614;2022-08-19T06:36:20;15.85;;;9.93;;
52614;SDS011;38508;53.158;6.614;2022-08-19T06:38:54;15.25;;;10.25;;
52614;SDS011;38508;53.158;6.614;2022-08-19T06:41:22;14.75;;;10.48;;
52614;SDS011;38508;53.158;6.614;2022-08-19T06:43:49;16.80;;;10.65;;
52614;SDS011;38508;53.158;6.614;2022-08-19T06:46:15;13.45;;;10.32;;
52614;SDS011;38508;53.158;6.614;2022-08-19T06:48:42;16.63;;;11.20;;
52614;SDS011;38508;53.158;6.614;2022-08-19T06:51:08;18.02;;;11.38;;
52614;SDS011;38508;53.158;6.614;2022-08-19T06:53:34;15.23;;;10.23;;
52614;SDS011;38508;53.158;6.614;2022-08-19T06:56:00;17.90;;;12.20;;
52614;SDS011;38508;53.158;6.614;2022-08-19T06:58:29;14.73;;;11.10;;
52614;SDS011;38508;53.158;6.614;2022-08-19T07:00:58;15.65;;;11.05;;
52614;SDS011;38508;53.158;6.614;2022-08-19T07:03:25;15.15;;;10.75;;
52614;SDS011;38508;53.158;6.614;2022-08-19T07:05:53;20.02;;;11.85;;
52614;SDS011;38508;53.158;6.614;2022-08-19T07:08:19;17.55;;;10.45;;
52614;SDS011;38508;53.158;6.614;2022-08-19T07:10:45;17.40;;;11.30;;
52614;SDS011;38508;53.158;6.614;2022-08-19T07:13:11;13.10;;;10.52;;
52614;SDS011;38508;53.158;6.614;2022-08-19T07:15:37;15.50;;;10.68;;
52614;SDS011;38508;53.158;6.614;2022-08-19T07:18:03;19.73;;;10.52;;
52614;SDS011;38508;53.158;6.614;2022-08-19T07:20:28;12.68;;;9.93;;
52614;SDS011;38508;53.158;6.614;2022-08-19T07:22:54;16.77;;;10.30;;
52614;SDS011;38508;53.158;6.614;2022-08-19T07:25:19;15.95;;;9.85;;
52614;SDS011;38508;53.158;6.614;2022-08-19T07:27:48;13.90;;;10.40;;
52614;SDS011;38508;53.158;6.614;2022-08-19T07:30:15;19.77;;;10.20;;
52614;SDS011;38508;53.158;6.614;2022-08-19T07:32:42;12.52;;;9.23;;
52614;SDS011;38508;53.158;6.614;2022-08-19T07:35:08;16.92;;;10.70;;
52614;SDS011;38508;53.158;6.614;2022-08-19T07:37:34;17.00;;;10.90;;
52614;SDS011;38508;53.158;6.614;2022-08-19T07:40:03;14.10;;;9.88;;
52614;SDS011;38508;53.158;6.614;2022-08-19T07:42:31;17.13;;;10.75;;
52614;SDS011;38508;53.158;6.614;2022-08-19T07:44:57;14.60;;;9.82;;
52614;SDS011;38508;53.158;6.614;2022-08-19T07:47:23;14.77;;;9.80;;
52614;SDS011;38508;53.158;6.614;2022-08-19T07:49:49;15.90;;;9.55;;
52614;SDS011;38508;53.158;6.614;2022-08-19T07:52:15;12.25;;;8.93;;
52614;SDS011;38508;53.158;6.614;2022-08-19T07:54:41;12.10;;;9.07;;
52614;SDS011;38508;53.158;6.614;2022-08-19T07:57:07;11.77;;;7.95;;
52614;SDS011;38508;53.158;6.614;2022-08-19T07:59:34;11.20;;;8.35;;
52614;SDS011;38508;53.158;6.614;2022-08-19T08:02:01;10.15;;;7.80;;
52614;SDS011;38508;53.158;6.614;2022-08-19T08:04:27;12.23;;;8.88;;
52614;SDS011;38508;53.158;6.614;2022-08-19T08:07:12;11.00;;;7.67;;
52614;SDS011;38508;53.158;6.614;2022-08-19T08:09:57;12.20;;;7.95;;
52614;SDS011;38508;53.158;6.614;2022-08-19T08:12:27;12.50;;;7.47;;
52614;SDS011;38508;53.158;6.614;2022-08-19T08:14:57;10.88;;;8.45;;
52614;SDS011;38508;53.158;6.614;2022-08-19T08:17:29;12.50;;;9.32;;
52614;SDS011;38508;53.158;6.614;2022-08-19T08:19:56;12.20;;;8.98;;
52614;SDS011;38508;53.158;6.614;2022-08-19T08:22:22;12.32;;;8.13;;
52614;SDS011;38508;53.158;6.614;2022-08-19T08:25:09;13.38;;;9.05;;
52614;SDS011;38508;53.158;6.614;2022-08-19T08:27:44;12.27;;;7.38;;
52614;SDS011;38508;53.158;6.614;2022-08-19T08:30:12;10.65;;;5.93;;
52614;SDS011;38508;53.158;6.614;2022-08-19T08:32:40;9.38;;;5.18;;
52614;SDS011;38508;53.158;6.614;2022-08-19T08:35:07;7.88;;;5.65;;
52614;SDS011;38508;53.158;6.614;2022-08-19T08:37:35;10.25;;;8.25;;
52614;SDS011;38508;53.158;6.614;2022-08-19T08:42:54;9.65;;;7.57;;
52614;SDS011;38508;53.158;6.614;2022-08-19T08:45:23;10.00;;;7.90;;
52614;SDS011;38508;53.158;6.614;2022-08-19T08:47:49;12.18;;;6.88;;
52614;SDS011;38508;53.158;6.614;2022-08-19T08:50:22;8.15;;;6.32;;
52614;SDS011;38508;53.158;6.614;2022-08-19T08:53:18;9.63;;;7.35;;
52614;SDS011;38508;53.158;6.614;2022-08-19T08:55:45;9.23;;;6.57;;
52614;SDS011;38508;53.158;6.614;2022-08-19T08:58:13;12.40;;;6.07;;
52614;SDS011;38508;53.158;6.614;2022-08-19T09:00:46;6.85;;;5.22;;
52614;SDS011;38508;53.158;6.614;2022-08-19T09:03:20;9.50;;;6.18;;
52614;SDS011;38508;53.158;6.614;2022-08-19T09:17:06;8.30;;;6.70;;
52614;SDS011;38508;53.158;6.614;2022-08-19T09:19:35;12.20;;;8.38;;
52614;SDS011;38508;53.158;6.614;2022-08-19T09:22:12;10.43;;;8.30;;
52614;SDS011;38508;53.158;6.614;2022-08-19T09:24:37;9.23;;;7.30;;
52614;SDS011;38508;53.158;6.614;2022-08-19T09:27:04;9.68;;;8.52;;
52614;SDS011;38508;53.158;6.614;2022-08-19T09:29:30;13.75;;;8.38;;
52614;SDS011;38508;53.158;6.614;2022-08-19T09:31:55;10.30;;;8.27;;
52614;SDS011;38508;53.158;6.614;2022-08-19T09:34:21;11.70;;;8.98;;
52614;SDS011;38508;53.158;6.614;2022-08-19T09:36:47;10.55;;;8.65;;
52614;SDS011;38508;53.158;6.614;2022-08-19T09:39:17;11.70;;;7.93;;
52614;SDS011;38508;53.158;6.614;2022-08-19T09:41:43;9.25;;;8.00;;
52614;SDS011;38508;53.158;6.614;2022-08-19T09:44:09;11.13;;;9.07;;
52614;SDS011;38508;53.158;6.614;2022-08-19T09:46:37;12.88;;;9.00;;
52614;SDS011;38508;53.158;6.614;2022-08-19T09:49:03;12.77;;;9.73;;
52614;SDS011;38508;53.158;6.614;2022-08-19T09:51:31;12.32;;;9.05;;
52614;SDS011;38508;53.158;6.614;2022-08-19T09:54:01;8.32;;;7.07;;
52614;SDS011;38508;53.158;6.614;2022-08-19T09:56:28;13.00;;;9.80;;
52614;SDS011;38508;53.158;6.614;2022-08-19T09:58:55;14.80;;;9.80;;
52614;SDS011;38508;53.158;6.614;2022-08-19T10:01:23;11.63;;;9.35;;
52614;SDS011;38508;53.158;6.614;2022-08-19T10:03:51;14.80;;;10.95;;
52614;SDS011;38508;53.158;6.614;2022-08-19T10:06:20;14.57;;;9.75;;
52614;SDS011;38508;53.158;6.614;2022-08-19T10:08:47;13.43;;;9.38;;
52614;SDS011;38508;53.158;6.614;2022-08-19T10:11:13;11.73;;;9.45;;
52614;SDS011;38508;53.158;6.614;2022-08-19T10:13:41;11.32;;;8.82;;
52614;SDS011;38508;53.158;6.614;2022-08-19T10:16:10;10.40;;;9.07;;
52614;SDS011;38508;53.158;6.614;2022-08-19T10:18:38;11.48;;;9.82;;
52614;SDS011;38508;53.158;6.614;2022-08-19T10:21:14;10.48;;;8.90;;
52614;SDS011;38508;53.158;6.614;2022-08-19T10:23:43;14.88;;;9.63;;
52614;SDS011;38508;53.158;6.614;2022-08-19T10:26:10;12.85;;;9.40;;
52614;SDS011;38508;53.158;6.614;2022-08-19T10:28:38;10.02;;;8.25;;
52614;SDS011;38508;53.158;6.614;2022-08-19T10:31:05;12.52;;;8.82;;
52614;SDS011;38508;53.158;6.614;2022-08-19T10:33:37;8.77;;;7.53;;
52614;SDS011;38508;53.158;6.614;2022-08-19T10:36:04;10.82;;;8.05;;
52614;SDS011;38508;53.158;6.614;2022-08-19T10:38:32;9.55;;;7.45;;
52614;SDS011;38508;53.158;6.614;2022-08-19T10:41:05;11.50;;;8.73;;
52614;SDS011;38508;53.158;6.614;2022-08-19T10:43:39;9.93;;;8.43;;
52614;SDS011;38508;53.158;6.614;2022-08-19T10:46:09;12.45;;;9.20;;
52614;SDS011;38508;53.158;6.614;2022-08-19T10:48:36;12.85;;;8.95;;
52614;SDS011;38508;53.158;6.614;2022-08-19T10:51:02;9.65;;;8.25;;
52614;SDS011;38508;53.158;6.614;2022-08-19T10:53:47;11.07;;;8.32;;
52614;SDS011;38508;53.158;6.614;2022-08-19T10:56:13;12.25;;;9.80;;
52614;SDS011;38508;53.158;6.614;2022-08-19T10:58:57;11.52;;;8.52;;
52614;SDS011;38508;53.158;6.614;2022-08-19T11:01:24;10.45;;;8.50;;
52614;SDS011;38508;53.158;6.614;2022-08-19T11:03:54;9.18;;;7.70;;
52614;SDS011;38508;53.158;6.614;2022-08-19T11:06:22;9.05;;;7.85;;
52614;SDS011;38508;53.158;6.614;2022-08-19T11:08:50;14.48;;;9.73;;
52614;SDS011;38508;53.158;6.614;2022-08-19T11:11:17;16.02;;;10.90;;
52614;SDS011;38508;53.158;6.614;2022-08-19T11:13:43;13.80;;;10.18;;
52614;SDS011;38508;53.158;6.614;2022-08-19T11:16:14;12.90;;;10.75;;
52614;SDS011;38508;53.158;6.614;2022-08-19T11:18:43;13.05;;;10.48;;
52614;SDS011;38508;53.158;6.614;2022-08-19T11:21:12;13.82;;;10.95;;
52614;SDS011;38508;53.158;6.614;2022-08-19T11:23:38;14.10;;;11.48;;
52614;SDS011;38508;53.158;6.614;2022-08-19T11:26:04;12.00;;;9.50;;
52614;SDS011;38508;53.158;6.614;2022-08-19T11:28:31;11.65;;;9.85;;
52614;SDS011;38508;53.158;6.614;2022-08-19T11:30:57;12.02;;;8.80;;
52614;SDS011;38508;53.158;6.614;2022-08-19T11:33:22;13.73;;;10.23;;
52614;SDS011;38508;53.158;6.614;2022-08-19T11:35:48;12.32;;;10.75;;
52614;SDS011;38508;53.158;6.614;2022-08-19T11:38:14;10.48;;;9.15;;
52614;SDS011;38508;53.158;6.614;2022-08-19T11:40:40;18.02;;;12.05;;
52614;SDS011;38508;53.158;6.614;2022-08-19T11:43:07;13.05;;;10.75;;
52614;SDS011;38508;53.158;6.614;2022-08-19T11:45:34;14.57;;;10.73;;
52614;SDS011;38508;53.158;6.614;2022-08-19T11:48:00;13.23;;;9.82;;
52614;SDS011;38508;53.158;6.614;2022-08-19T11:50:27;13.40;;;9.60;;
52614;SDS011;38508;53.158;6.614;2022-08-19T11:52:53;12.90;;;10.65;;
52614;SDS011;38508;53.158;6.614;2022-08-19T11:55:20;11.38;;;8.93;;
52614;SDS011;38508;53.158;6.614;2022-08-19T11:57:46;11.40;;;9.00;;
52614;SDS011;38508;53.158;6.614;2022-08-19T12:00:12;13.73;;;10.60;;
52614;SDS011;38508;53.158;6.614;2022-08-19T12:02:39;14.23;;;12.73;;
52614;SDS011;38508;53.158;6.614;2022-08-19T12:05:05;13.98;;;10.02;;
52614;SDS011;38508;53.158;6.614;2022-08-19T12:07:31;15.30;;;12.98;;
52614;SDS011;38508;53.158;6.614;2022-08-19T12:09:58;15.68;;;11.88;;
52614;SDS011;38508;53.158;6.614;2022-08-19T12:12:26;14.95;;;11.70;;
52614;SDS011;38508;53.158;6.614;2022-08-19T12:14:52;12.60;;;9.93;;
52614;SDS011;38508;53.158;6.614;2022-08-19T12:17:25;10.18;;;8.43;;
52614;SDS011;38508;53.158;6.614;2022-08-19T12:19:52;9.27;;;7.50;;
52614;SDS011;38508;53.158;6.614;2022-08-19T12:22:18;8.18;;;7.28;;
52614;SDS011;38508;53.158;6.614;2022-08-19T12:24:45;9.23;;;7.28;;
52614;SDS011;38508;53.158;6.614;2022-08-19T12:27:10;11.63;;;8.15;;
52614;SDS011;38508;53.158;6.614;2022-08-19T12:29:36;10.30;;;9.18;;
52614;SDS011;38508;53.158;6.614;2022-08-19T12:32:01;10.43;;;9.38;;
52614;SDS011;38508;53.158;6.614;2022-08-19T12:34:29;12.57;;;8.80;;
52614;SDS011;38508;53.158;6.614;2022-08-19T12:36:56;11.15;;;9.15;;
52614;SDS011;38508;53.158;6.614;2022-08-19T12:39:23;10.60;;;7.97;;
52614;SDS011;38508;53.158;6.614;2022-08-19T12:41:49;11.20;;;9.63;;
52614;SDS011;38508;53.158;6.614;2022-08-19T12:44:15;11.48;;;9.48;;
52614;SDS011;38508;53.158;6.614;2022-08-19T12:46:41;12.13;;;9.48;;
52614;SDS011;38508;53.158;6.614;2022-08-19T12:49:08;14.07;;;9.63;;
52614;SDS011;38508;53.158;6.614;2022-08-19T12:51:34;13.07;;;8.98;;
52614;SDS011;38508;53.158;6.614;2022-08-19T12:54:00;10.75;;;7.80;;
52614;SDS011;38508;53.158;6.614;2022-08-19T12:56:26;14.30;;;9.85;;
52614;SDS011;38508;53.158;6.614;2022-08-19T12:58:52;13.63;;;9.32;;
52614;SDS011;38508;53.158;6.614;2022-08-19T13:01:18;10.52;;;8.35;;
52614;SDS011;38508;53.158;6.614;2022-08-19T13:03:45;10.15;;;7.30;;
52614;SDS011;38508;53.158;6.614;2022-08-19T13:06:11;10.90;;;7.90;;
52614;SDS011;38508;53.158;6.614;2022-08-19T13:08:38;12.48;;;8.52;;
52614;SDS011;38508;53.158;6.614;2022-08-19T13:11:11;9.10;;;8.02;;
52614;SDS011;38508;53.158;6.614;2022-08-19T13:13:40;9.68;;;8.40;;
52614;SDS011;38508;53.158;6.614;2022-08-19T13:16:07;14.35;;;7.78;;
52614;SDS011;38508;53.158;6.614;2022-08-19T13:18:36;11.48;;;7.80;;
52614;SDS011;38508;53.158;6.614;2022-08-19T13:21:05;12.75;;;8.45;;
52614;SDS011;38508;53.158;6.614;2022-08-19T13:23:33;12.35;;;8.60;;
52614;SDS011;38508;53.158;6.614;2022-08-19T13:26:02;10.77;;;7.70;;
52614;SDS011;38508;53.158;6.614;2022-08-19T13:28:30;11.52;;;8.05;;
52614;SDS011;38508;53.158;6.614;2022-08-19T13:34:04;15.00;;;10.18;;
52614;SDS011;38508;53.158;6.614;2022-08-19T13:36:31;18.85;;;12.52;;
52614;SDS011;38508;53.158;6.614;2022-08-19T13:39:00;19.20;;;12.65;;
52614;SDS011;38508;53.158;6.614;2022-08-19T13:41:27;19.88;;;13.88;;
52614;SDS011;38508;53.158;6.614;2022-08-19T13:43:53;21.10;;;12.90;;
52614;SDS011;38508;53.158;6.614;2022-08-19T13:46:19;19.40;;;13.25;;
52614;SDS011;38508;53.158;6.614;2022-08-19T13:48:46;18.75;;;12.10;;
52614;SDS011;38508;53.158;6.614;2022-08-19T13:51:13;17.85;;;11.27;;
52614;SDS011;38508;53.158;6.614;2022-08-19T13:53:41;19.48;;;12.02;;
52614;SDS011;38508;53.158;6.614;2022-08-19T13:56:10;17.23;;;9.90;;
52614;SDS011;38508;53.158;6.614;2022-08-19T13:58:37;14.30;;;9.18;;
52614;SDS011;38508;53.158;6.614;2022-08-19T14:01:04;12.77;;;8.48;;
52614;SDS011;38508;53.158;6.614;2022-08-19T14:03:31;12.73;;;8.00;;
52614;SDS011;38508;53.158;6.614;2022-08-19T14:05:58;12.32;;;8.40;;
52614;SDS011;38508;53.158;6.614;2022-08-19T14:08:24;12.82;;;7.13;;
52614;SDS011;38508;53.158;6.614;2022-08-19T14:10:52;11.65;;;7.93;;
52614;SDS011;38508;53.158;6.614;2022-08-19T14:13:20;15.02;;;8.02;;
52614;SDS011;38508;53.158;6.614;2022-08-19T14:15:47;10.10;;;7.32;;
52614;SDS011;38508;53.158;6.614;2022-08-19T14:18:14;11.60;;;7.28;;
52614;SDS011;38508;53.158;6.614;2022-08-19T14:20:41;11.57;;;7.38;;
52614;SDS011;38508;53.158;6.614;2022-08-19T14:23:07;13.80;;;7.95;;
52614;SDS011;38508;53.158;6.614;2022-08-19T14:25:33;12.43;;;7.32;;
52614;SDS011;38508;53.158;6.614;2022-08-19T14:27:59;12.05;;;8.82;;
52614;SDS011;38508;53.158;6.614;2022-08-19T14:30:33;15.00;;;9.07;;
52614;SDS011;38508;53.158;6.614;2022-08-19T14:33:00;15.43;;;10.75;;
52614;SDS011;38508;53.158;6.614;2022-08-19T14:35:27;14.15;;;9.60;;
52614;SDS011;38508;53.158;6.614;2022-08-19T14:37:54;15.35;;;10.68;;
52614;SDS011;38508;53.158;6.614;2022-08-19T14:40:20;18.25;;;10.60;;
52614;SDS011;38508;53.158;6.614;2022-08-19T14:42:50;17.55;;;11.73;;
52614;SDS011;38508;53.158;6.614;2022-08-19T14:45:16;20.85;;;10.43;;
52614;SDS011;38508;53.158;6.614;2022-08-19T14:47:42;19.67;;;12.23;;
52614;SDS011;38508;53.158;6.614;2022-08-19T14:50:09;20.98;;;11.73;;
52614;SDS011;38508;53.158;6.614;2022-08-19T14:52:36;18.85;;;13.30;;
52614;SDS011;38508;53.158;6.614;2022-08-19T14:55:03;22.88;;;12.10;;
52614;SDS011;38508;53.158;6.614;2022-08-19T14:57:29;18.85;;;11.50;;
52614;SDS011;38508;53.158;6.614;2022-08-19T14:59:55;22.05;;;13.82;;